CheckWX is a tool to help pilots better visualize weather data.  It is not intended as a substitute for an official pre-flight weather briefing.

03:14:31 UTC

KBGM METAR
Greater Binghamton / Edwin A Link Field Airport
Binghamton, New York, USA
Current

20 mins ago

KBGM 260255Z 18006KT 3SM RA BR SCT013 BKN038 OVC070 16/15 A2999 RMK AO2 LTG DSNT SE AND S P0001 T01560150
Observed
May-26 @ 02:55 UTC
Wind
  • 180° at 6 KTS
Visibility
3 SM
Flight Rules
MVFR
Conditions
Rain, Mist
Cloud Levels
  • Scattered at 1,300' AGL
  • Broken at 3,800' AGL
  • Overcast at 7,000' AGL
Temperature
16°C / 61°F
Dewpoint
15°C / 59°F
Humidity
94%
Altimeter
29.99" Hg
Pressure
1015.62 hPa
Current Rain
0.01"
Previous

29 mins ago

KBGM 260246Z 19005KT 3SM +RA BR SCT012 BKN018 OVC070 16/15 A3000 RMK AO2 LTG DSNT SE AND S TSB0156E11 P0028 T01560150
Observed
May-26 @ 02:46 UTC
Wind
  • 190° at 5 KTS
Visibility
3 SM
Flight Rules
MVFR
Conditions
Heavy Rain, Mist
Cloud Levels
  • Scattered at 1,200' AGL
  • Broken at 1,800' AGL
  • Overcast at 7,000' AGL
Temperature
16°C / 61°F
Dewpoint
15°C / 59°F
Humidity
94%
Altimeter
30" Hg
Pressure
1015.92 hPa
Current Rain
0.28"
Previous

52 mins ago

KBGM 260223Z 23004KT 2SM +RA BR BKN020 OVC025 16/15 A3002 RMK AO2 LTG DSNT NE AND E TSB0156E11 P0015 T01560150
Observed
May-26 @ 02:23 UTC
Wind
  • 230° at 4 KTS
Visibility
2 SM
Flight Rules
IFR
Conditions
Heavy Rain, Mist
Cloud Levels
  • Broken at 2,000' AGL
  • Overcast at 2,500' AGL
Temperature
16°C / 61°F
Dewpoint
15°C / 59°F
Humidity
94%
Altimeter
30.02" Hg
Pressure
1016.62 hPa
Current Rain
0.15"